Time;durP1;ratioP1;P1;durP2;ratioP2;P2;SDS_P1;SDS_P2;PMS_P1;PMS_P2;Temp;Humidity;BMP_temperature;BMP_pressure;BME280_temperature;BME280_humidity;BME280_pressure;Samples;Min_cycle;Max_cycle;Signal;HPM_P1;HPM_P2
2021/10/22 00:01:59;;;;;;;;;;;;;;;11.84;59.75;98838.94;1739723;80;20334;-81
2021/10/22 00:04:26;;;;;;;;;;;;;;;11.80;59.87;98880.02;1744298;81;21095;-81
2021/10/22 00:06:53;;;;;;;;;;;;;;;11.80;60.03;98866.79;1744248;81;21044;-79
2021/10/22 00:09:19;;;;;;;;;;;;;;;11.79;61.95;98967.48;1740148;81;20130;-79
2021/10/22 00:11:45;;;;;;;;;;;;;;;10.99;72.66;98934.63;1746928;81;20175;-78
2021/10/22 00:14:11;;;;;;;;;;;;;;;10.49;78.21;98958.79;1744938;81;20237;-78
2021/10/22 00:16:37;;;;;;;;;;;;;;;10.09;81.63;98974.88;1743367;81;21141;-78
2021/10/22 00:19:04;;;;;;;;;;;;;;;9.73;83.36;98950.55;1734398;81;20145;-78
2021/10/22 00:21:34;;;;;;;;;;;;;;;9.66;84.87;98934.64;1732337;82;20160;-78
2021/10/22 00:24:05;;;;;;;;;;;;;;;9.53;86.26;98930.48;1734037;81;20985;-80
2021/10/22 00:26:30;;;;;;;;;;;;;;;9.53;88.57;98939.70;1730833;82;20147;-79
2021/10/22 00:28:57;;;;;;;;;;;;;;;9.40;90.74;98940.80;1738150;81;21098;-79
2021/10/22 00:31:23;;;;;;;;;;;;;;;9.37;92.22;98951.69;1736273;81;20075;-78
2021/10/22 00:33:50;;;;;;;;;;;;;;;9.37;92.43;98950.38;1734494;81;20196;-79
2021/10/22 00:36:18;;;;;;;;;;;;;;;9.34;93.20;98957.64;1732557;81;20115;-79
2021/10/22 00:38:47;;;;;;;;;;;;;;;9.30;94.18;98966.89;1708352;81;20134;-79
2021/10/22 00:41:15;;;;;;;;;;;;;;;9.27;92.98;98965.12;1730597;82;21102;-79
2021/10/22 00:43:43;;;;;;;;;;;;;;;9.32;92.42;98955.70;1696578;82;20456;-79
2021/10/22 00:46:08;;;;;;;;;;;;;;;9.37;92.59;98956.96;1732904;82;20210;-79
2021/10/22 00:48:37;;;;;;;;;;;;;;;9.38;92.96;98954.15;1731752;82;20164;-79
2021/10/22 00:51:03;;;;;;;;;;;;;;;9.31;93.44;98938.24;1711373;82;20150;-79
2021/10/22 00:53:29;;;;;;;;;;;;;;;9.39;93.09;98948.41;1736080;81;21156;-79
2021/10/22 00:55:55;;;;;;;;;;;;;;;9.30;91.92;98944.50;1733400;82;20130;-79
2021/10/22 00:58:22;;;;;;;;;;;;;;;9.29;91.18;98961.32;1734632;82;20162;-79
2021/10/22 01:00:48;;;;;;;;;;;;;;;9.28;91.58;98954.41;1732677;81;20518;-79
2021/10/22 01:03:17;;;;;;;;;;;;;;;9.21;91.63;98956.09;1735033;82;20232;-80
2021/10/22 01:05:43;;;;;;;;;;;;;;;9.13;92.33;98964.07;1712273;82;20119;-79
2021/10/22 01:08:09;;;;;;;;;;;;;;;9.13;93.31;98964.07;1735720;82;20158;-80
2021/10/22 01:10:38;;;;;;;;;;;;;;;9.07;93.19;98996.38;1736597;82;20190;-78
2021/10/22 01:13:04;;;;;;;;;;;;;;;9.06;93.80;98999.98;1731999;82;20495;-79
2021/10/22 01:15:29;;;;;;;;;;;;;;;9.14;92.70;98985.47;1735351;82;20368;-79
2021/10/22 01:17:56;;;;;;;;;;;;;;;9.16;91.90;98997.95;1735785;81;21108;-79
2021/10/22 01:20:22;;;;;;;;;;;;;;;9.17;90.76;99006.19;1739205;81;20578;-79
2021/10/22 01:22:50;;;;;;;;;;;;;;;9.25;90.01;99036.42;1744304;81;20146;-79
2021/10/22 01:25:17;;;;;;;;;;;;;;;9.25;88.79;99031.15;1743044;80;20136;-80
2021/10/22 01:27:43;;;;;;;;;;;;;;;9.26;87.99;99040.70;1740155;81;20170;-81
2021/10/22 01:30:11;;;;;;;;;;;;;;;9.24;84.83;99032.13;1745265;81;21005;-81
2021/10/22 01:32:36;;;;;;;;;;;;;;;9.23;81.26;99053.38;1741215;81;20507;-79
2021/10/22 01:35:06;;;;;;;;;;;;;;;9.26;81.38;99045.97;1713937;81;20280;-79
2021/10/22 01:37:37;;;;;;;;;;;;;;;9.24;79.62;99071.65;1738611;81;20522;-80
2021/10/22 01:40:04;;;;;;;;;;;;;;;9.23;79.07;99067.39;1742882;81;20145;-80
2021/10/22 01:42:29;;;;;;;;;;;;;;;9.15;76.20;99089.81;1742271;81;20996;-80
2021/10/22 01:44:57;;;;;;;;;;;;;;;9.18;73.53;99098.69;1744579;81;20201;-79
2021/10/22 01:47:24;;;;;;;;;;;;;;;9.15;74.23;99085.86;1714926;81;20164;-78
2021/10/22 01:49:52;;;;;;;;;;;;;;;9.13;72.82;99085.22;1747536;81;20193;-79
2021/10/22 01:52:18;;;;;;;;;;;;;;;9.06;72.07;99136.93;1744968;81;20169;-78
2021/10/22 01:54:44;;;;;;;;;;;;;;;9.04;72.52;99092.84;1746601;81;21127;-79
2021/10/22 01:57:14;;;;;;;;;;;;;;;9.10;72.43;99082.94;1747164;81;20824;-78
2021/10/22 01:59:37;;;;;;;;;;;;;;;9.00;72.71;99083.66;1742073;81;20263;-77
2021/10/22 02:02:03;;;;;;;;;;;;;;;8.97;73.52;99090.89;1745709;81;20453;-77
2021/10/22 02:04:31;;;;;;;;;;;;;;;9.01;73.74;99095.81;1741906;81;20429;-80
2021/10/22 02:06:57;;;;;;;;;;;;;;;8.93;74.09;99110.68;1741875;81;21941;-79
2021/10/22 02:09:25;;;;;;;;;;;;;;;8.90;74.85;99115.45;1741452;81;20178;-79
2021/10/22 02:11:50;;;;;;;;;;;;;;;8.87;75.34;99102.63;1746828;81;20924;-79
2021/10/22 02:14:18;;;;;;;;;;;;;;;8.84;75.41;99097.22;1715533;81;20204;-79
2021/10/22 02:16:44;;;;;;;;;;;;;;;8.76;74.64;99110.39;1745261;81;20202;-80
2021/10/22 02:19:12;;;;;;;;;;;;;;;8.79;73.92;99107.42;1738168;81;21074;-80
2021/10/22 02:21:39;;;;;;;;;;;;;;;8.78;73.40;99105.80;1736459;82;20146;-80
2021/10/22 02:24:05;;;;;;;;;;;;;;;8.77;73.34;99132.59;1733272;82;20126;-80
2021/10/22 02:26:31;;;;;;;;;;;;;;;8.80;72.90;99124.87;1734912;82;20221;-80
2021/10/22 02:28:57;;;;;;;;;;;;;;;8.81;73.21;99133.10;1713464;82;20233;-79
2021/10/22 02:31:23;;;;;;;;;;;;;;;8.84;73.33;99120.08;1737977;82;21106;-80
2021/10/22 02:33:49;;;;;;;;;;;;;;;8.85;73.45;99130.44;1710291;82;20202;-80
2021/10/22 02:36:16;;;;;;;;;;;;;;;8.76;73.94;99129.66;1734685;80;20291;-80
2021/10/22 02:38:44;;;;;;;;;;;;;;;8.83;73.86;99129.80;1733523;81;20276;-80
2021/10/22 02:41:10;;;;;;;;;;;;;;;8.77;72.75;99141.00;1738205;82;20084;-80
2021/10/22 02:43:39;;;;;;;;;;;;;;;8.66;72.85;99127.71;1734728;81;21352;-80
2021/10/22 02:46:07;;;;;;;;;;;;;;;8.76;72.34;99137.56;1710742;82;21181;-79
2021/10/22 02:48:32;;;;;;;;;;;;;;;8.63;72.57;99135.94;1737036;81;20146;-80
2021/10/22 02:51:00;;;;;;;;;;;;;;;8.68;72.93;99125.72;1735677;82;20179;-80
2021/10/22 02:53:26;;;;;;;;;;;;;;;8.70;72.82;99151.88;1733988;82;20170;-80
2021/10/22 02:55:51;;;;;;;;;;;;;;;8.74;72.76;99153.19;1737470;82;21135;-80
2021/10/22 02:58:17;;;;;;;;;;;;;;;8.76;73.09;99145.45;1733861;82;20515;-80
2021/10/22 03:00:44;;;;;;;;;;;;;;;8.72;73.36;99132.80;1735956;82;20139;-79
2021/10/22 03:03:11;;;;;;;;;;;;;;;8.73;73.60;99144.95;1736738;81;20527;-80
2021/10/22 03:05:38;;;;;;;;;;;;;;;8.77;73.27;99143.63;1738828;82;20099;-79
2021/10/22 03:08:06;;;;;;;;;;;;;;;8.69;72.99;99191.05;1734625;80;21177;-79
2021/10/22 03:10:34;;;;;;;;;;;;;;;8.74;73.06;99166.34;1733308;81;20208;-79
2021/10/22 03:13:01;;;;;;;;;;;;;;;8.77;73.20;99151.53;1730833;81;20271;-80
2021/10/22 03:15:27;;;;;;;;;;;;;;;8.70;73.04;99159.77;1731417;81;20221;-80
2021/10/22 03:17:54;;;;;;;;;;;;;;;8.62;72.32;99146.13;1733886;80;20207;-80
2021/10/22 03:20:22;;;;;;;;;;;;;;;8.68;71.68;99161.75;1740361;81;21060;-79
2021/10/22 03:22:47;;;;;;;;;;;;;;;8.67;71.84;99164.89;1742291;81;20133;-79
2021/10/22 03:25:13;;;;;;;;;;;;;;;8.76;72.11;99178.83;1713107;82;20138;-80
2021/10/22 03:27:39;;;;;;;;;;;;;;;8.62;72.56;99190.39;1743414;82;20180;-79
2021/10/22 03:30:07;;;;;;;;;;;;;;;8.67;71.99;99195.16;1742794;82;20222;-80
2021/10/22 03:32:36;;;;;;;;;;;;;;;8.67;72.19;99193.00;1742870;81;21039;-80
2021/10/22 03:35:02;;;;;;;;;;;;;;;8.58;72.31;99195.66;1715520;82;20117;-80
2021/10/22 03:37:30;;;;;;;;;;;;;;;8.56;72.08;99209.48;1741368;82;20118;-80
2021/10/22 03:39:56;;;;;;;;;;;;;;;8.59;72.35;99201.26;1746454;81;20181;-80
2021/10/22 03:42:21;;;;;;;;;;;;;;;8.53;72.18;99200.61;1742929;82;20189;-80
2021/10/22 03:44:47;;;;;;;;;;;;;;;8.56;71.62;99200.27;1742497;81;21147;-80
2021/10/22 03:47:16;;;;;;;;;;;;;;;8.50;71.50;99219.36;1711520;82;21297;-80
2021/10/22 03:49:43;;;;;;;;;;;;;;;8.51;71.43;99235.95;1743882;81;20468;-79
2021/10/22 03:52:11;;;;;;;;;;;;;;;8.44;71.04;99220.02;1741242;81;21607;-80
2021/10/22 03:54:36;;;;;;;;;;;;;;;8.46;70.87;99239.08;1745137;81;20114;-79
2021/10/22 03:57:02;;;;;;;;;;;;;;;8.43;70.43;99207.81;1743823;81;21163;-80
2021/10/22 03:59:30;;;;;;;;;;;;;;;8.47;70.44;99252.58;1745529;82;20421;-80
2021/10/22 04:01:57;;;;;;;;;;;;;;;8.44;70.62;99225.28;1744712;82;20182;-79
2021/10/22 04:04:28;;;;;;;;;;;;;;;8.42;70.47;99228.52;1747451;82;20536;-80
2021/10/22 04:06:50;;;;;;;;;;;;;;;8.46;70.52;99223.30;1742561;82;20189;-80
2021/10/22 04:09:16;;;;;;;;;;;;;;;8.41;70.41;99265.04;1744495;80;21086;-80
2021/10/22 04:11:41;;;;;;;;;;;;;;;8.34;70.93;99267.98;1744586;82;20122;-80
2021/10/22 04:14:07;;;;;;;;;;;;;;;8.34;71.14;99232.47;1744811;81;20129;-79
2021/10/22 04:16:33;;;;;;;;;;;;;;;8.29;71.33;99246.62;1715075;82;20507;-78
2021/10/22 04:18:58;;;;;;;;;;;;;;;8.31;71.63;99264.36;1742324;81;20122;-79
2021/10/22 04:21:24;;;;;;;;;;;;;;;8.32;71.56;99252.87;1746634;81;21087;-80
2021/10/22 04:23:51;;;;;;;;;;;;;;;8.27;71.86;99306.78;1746469;81;20210;-80
2021/10/22 04:26:17;;;;;;;;;;;;;;;8.20;72.24;99243.15;1748385;82;20138;-79
2021/10/22 04:28:44;;;;;;;;;;;;;;;8.18;72.39;99268.30;1746605;82;20122;-78
2021/10/22 04:31:10;;;;;;;;;;;;;;;8.09;72.75;99273.21;1743401;82;20193;-79
2021/10/22 04:33:36;;;;;;;;;;;;;;;8.13;72.69;99260.08;1740165;80;21234;-81
2021/10/22 04:36:06;;;;;;;;;;;;;;;8.17;73.04;99233.80;1745581;82;20585;-79
2021/10/22 04:41:15;;;;;;;;;;;;;;;8.04;73.60;99259.73;1746867;82;20153;-80
2021/10/22 04:43:43;;;;;;;;;;;;;;;7.96;73.95;99244.77;1744864;82;20176;-80
2021/10/22 04:46:10;;;;;;;;;;;;;;;7.97;74.19;99253.47;1741616;82;20977;-78
2021/10/22 04:48:35;;;;;;;;;;;;;;;7.89;74.56;99271.36;1744884;80;20620;-80
2021/10/22 04:51:01;;;;;;;;;;;;;;;7.85;74.81;99247.21;1723013;82;21373;-80
2021/10/22 04:53:27;;;;;;;;;;;;;;;7.77;75.06;99249.83;1743563;82;20152;-81
2021/10/22 04:55:58;;;;;;;;;;;;;;;7.76;75.34;99261.31;1748997;82;20185;-81
2021/10/22 04:58:23;;;;;;;;;;;;;;;7.70;75.65;99264.58;1746559;82;22196;-80
2021/10/22 05:00:51;;;;;;;;;;;;;;;7.57;76.28;99258.94;1719971;82;20971;-79
2021/10/22 05:03:17;;;;;;;;;;;;;;;7.57;76.56;99270.76;1739547;82;20509;-81
2021/10/22 05:05:43;;;;;;;;;;;;;;;7.53;76.77;99272.39;1747160;82;20321;-80
2021/10/22 05:08:10;;;;;;;;;;;;;;;7.62;76.63;99276.38;1722326;82;20399;-80
2021/10/22 05:10:35;;;;;;;;;;;;;;;7.52;76.78;99285.21;1746234;82;21223;-78
2021/10/22 05:13:01;;;;;;;;;;;;;;;7.41;77.39;99289.44;1740149;82;20456;-80
2021/10/22 05:15:27;;;;;;;;;;;;;;;7.39;77.63;99276.93;1744503;81;20102;-79
2021/10/22 05:17:55;;;;;;;;;;;;;;;7.40;77.78;99283.84;1716627;82;20572;-81
2021/10/22 05:20:20;;;;;;;;;;;;;;;7.33;77.73;99300.72;1749196;81;20480;-80
2021/10/22 05:22:46;;;;;;;;;;;;;;;7.32;78.03;99293.81;1742669;81;21118;-81
2021/10/22 05:25:14;;;;;;;;;;;;;;;7.27;78.33;99299.19;1740989;81;20794;-81
2021/10/22 05:27:41;;;;;;;;;;;;;;;7.24;78.39;99302.13;1741317;81;20126;-80
2021/10/22 05:30:09;;;;;;;;;;;;;;;7.24;78.42;99310.00;1743728;81;20151;-79
2021/10/22 05:32:37;;;;;;;;;;;;;;;7.21;78.55;99310.31;1743712;81;20198;-79
2021/10/22 05:35:04;;;;;;;;;;;;;;;7.25;78.56;99321.67;1743860;81;21100;-80
2021/10/22 05:37:33;;;;;;;;;;;;;;;7.17;78.62;99317.19;1743651;81;20129;-80
2021/10/22 05:40:00;;;;;;;;;;;;;;;7.14;78.51;99322.75;1742229;81;20451;-79
2021/10/22 05:42:27;;;;;;;;;;;;;;;7.19;78.49;99317.88;1715313;81;20106;-80
2021/10/22 05:44:55;;;;;;;;;;;;;;;7.17;78.17;99335.57;1746096;81;20506;-80
2021/10/22 05:47:20;;;;;;;;;;;;;;;7.18;78.00;99344.29;1740137;81;20146;-79
2021/10/22 05:49:47;;;;;;;;;;;;;;;7.19;77.88;99340.20;1746335;81;20134;-79
2021/10/22 05:52:16;;;;;;;;;;;;;;;7.21;77.89;99322.13;1744866;81;20443;-79
2021/10/22 05:54:42;;;;;;;;;;;;;;;7.17;77.86;99338.20;1737235;81;20631;-80
2021/10/22 05:57:08;;;;;;;;;;;;;;;7.22;77.58;99357.92;1742352;81;20522;-80
2021/10/22 05:59:33;;;;;;;;;;;;;;;7.17;77.53;99371.52;1743015;81;21061;-82
2021/10/22 06:01:59;;;;;;;;;;;;;;;7.16;77.37;99349.70;1740219;81;20174;-80
2021/10/22 06:04:25;;;;;;;;;;;;;;;7.24;77.38;99359.44;1738884;81;20527;-80
2021/10/22 06:06:51;;;;;;;;;;;;;;;7.25;77.09;99354.99;1747367;81;20188;-80
2021/10/22 06:09:17;;;;;;;;;;;;;;;7.27;77.08;99359.13;1748708;80;20141;-79
2021/10/22 06:11:42;;;;;;;;;;;;;;;7.18;76.80;99387.12;1739306;81;21115;-79
2021/10/22 06:14:08;;;;;;;;;;;;;;;7.18;76.70;99375.80;1735293;81;20444;-82
2021/10/22 06:16:37;;;;;;;;;;;;;;;7.19;76.52;99385.30;1710140;81;20236;-81
2021/10/22 06:19:05;;;;;;;;;;;;;;;7.28;76.47;99375.69;1748672;81;20177;-80
2021/10/22 06:21:51;;;;;;;;;;;;;;;7.35;76.09;99400.38;1742065;81;20178;-80
2021/10/22 06:24:03;;;;;;;;;;;;;;;7.38;76.12;99390.87;1741384;81;20158;-80
2021/10/22 06:26:32;;;;;;;;;;;;;;;7.32;75.87;99392.80;1746582;81;20156;-80
2021/10/22 06:28:58;;;;;;;;;;;;;;;7.31;75.95;99396.39;1740217;81;20167;-81
2021/10/22 06:31:25;;;;;;;;;;;;;;;7.31;76.13;99395.08;1743705;81;20520;-82
2021/10/22 06:33:53;;;;;;;;;;;;;;;7.36;75.86;99408.57;1739124;81;20095;-81
2021/10/22 06:36:19;;;;;;;;;;;;;;;7.43;75.47;99391.73;1741435;81;21053;-81
2021/10/22 06:38:44;;;;;;;;;;;;;;;7.50;75.55;99394.89;1744522;81;20413;-81
2021/10/22 06:41:10;;;;;;;;;;;;;;;7.54;75.50;99394.90;1736369;81;20122;-80
2021/10/22 06:43:36;;;;;;;;;;;;;;;7.59;75.24;99408.07;1739993;81;20153;-81
2021/10/22 06:46:03;;;;;;;;;;;;;;;7.52;75.43;99402.62;1745285;81;20233;-81
2021/10/22 06:48:30;;;;;;;;;;;;;;;7.55;75.43;99397.87;1740369;81;20503;-83
2021/10/22 06:50:56;;;;;;;;;;;;;;;7.54;75.68;99404.09;1742692;81;20196;-82
2021/10/22 06:53:22;;;;;;;;;;;;;;;7.57;75.71;99434.97;1740674;81;20333;-82
2021/10/22 06:55:47;;;;;;;;;;;;;;;7.60;75.73;99421.52;1744406;81;20448;-81
2021/10/22 06:58:13;;;;;;;;;;;;;;;7.68;75.50;99418.46;1713529;81;20248;-82
2021/10/22 07:00:39;;;;;;;;;;;;;;;7.68;75.38;99412.39;1743303;81;21055;-82
2021/10/22 07:03:04;;;;;;;;;;;;;;;7.66;75.06;99411.23;1741497;81;21039;-82
2021/10/22 07:05:50;;;;;;;;;;;;;;;7.71;75.51;99426.54;1713990;81;20270;-79
2021/10/22 07:08:04;;;;;;;;;;;;;;;7.70;75.29;99413.05;1739737;81;21110;-81
2021/10/22 07:10:31;;;;;;;;;;;;;;;7.68;75.23;99434.73;1745373;81;20491;-80
2021/10/22 07:12:58;;;;;;;;;;;;;;;7.75;75.28;99429.67;1741675;81;21057;-82
2021/10/22 07:15:28;;;;;;;;;;;;;;;7.89;74.82;99431.71;1744132;81;21412;-80
2021/10/22 07:17:56;;;;;;;;;;;;;;;7.89;74.72;99426.45;1744813;81;20168;-84
2021/10/22 07:20:21;;;;;;;;;;;;;;;7.98;74.53;99431.27;1740112;81;20123;-78
2021/10/22 07:22:50;;;;;;;;;;;;;;;8.07;74.33;99426.38;1734606;80;20162;-79
2021/10/22 07:25:15;;;;;;;;;;;;;;;8.07;73.87;99429.02;1732589;81;20134;-81
2021/10/22 07:27:40;;;;;;;;;;;;;;;8.08;73.61;99435.93;1734341;81;20175;-82
2021/10/22 07:30:07;;;;;;;;;;;;;;;8.12;73.66;99439.88;1734711;82;20185;-78
2021/10/22 07:32:32;;;;;;;;;;;;;;;8.23;73.38;99431.72;1733557;82;20195;-81
2021/10/22 07:35:00;;;;;;;;;;;;;;;8.02;73.18;99489.96;1714123;82;20370;-83
2021/10/22 07:37:28;;;;;;;;;;;;;;;8.17;73.05;99437.62;1732723;81;20208;-78
2021/10/22 07:39:54;;;;;;;;;;;;;;;8.20;73.05;99497.80;1738192;82;20119;-82
2021/10/22 07:42:20;;;;;;;;;;;;;;;8.14;72.61;99474.75;1734539;81;20231;-81
2021/10/22 07:44:46;;;;;;;;;;;;;;;8.18;72.80;99440.56;1731824;81;21125;-81
2021/10/22 07:47:11;;;;;;;;;;;;;;;8.26;72.70;99444.56;1735818;82;20126;-79
2021/10/22 07:49:42;;;;;;;;;;;;;;;8.37;72.46;99454.44;1734770;82;20557;-82
2021/10/22 07:52:10;;;;;;;;;;;;;;;8.37;71.79;99445.23;1733745;82;20162;-83
2021/10/22 07:54:36;;;;;;;;;;;;;;;8.46;71.56;99454.02;1733537;81;20154;-82
2021/10/22 07:57:03;;;;;;;;;;;;;;;8.58;71.51;99464.08;1736332;81;20150;-82
2021/10/22 07:59:31;;;;;;;;;;;;;;;8.54;71.35;99460.11;1736371;81;20497;-81
2021/10/22 08:01:56;;;;;;;;;;;;;;;8.64;70.84;99504.73;1708876;82;21148;-80
2021/10/22 08:04:22;;;;;;;;;;;;;;;8.61;69.91;99469.03;1733466;80;20184;-78
2021/10/22 08:06:47;;;;;;;;;;;;;;;8.60;69.81;99477.89;1730859;82;20138;-85
2021/10/22 08:09:17;;;;;;;;;;;;;;;8.52;69.94;99512.09;1712717;82;20196;-86
2021/10/22 08:11:44;;;;;;;;;;;;;;;8.46;69.94;99492.98;1735159;82;20488;-83
2021/10/22 08:14:12;;;;;;;;;;;;;;;8.51;69.80;99486.75;1730745;82;21803;-81
2021/10/22 08:16:41;;;;;;;;;;;;;;;8.57;69.92;99517.69;1732158;82;20119;-82
2021/10/22 08:19:08;;;;;;;;;;;;;;;8.64;69.85;99496.84;1732904;81;20212;-84
2021/10/22 08:24:06;;;;;;;;;;;;;;;8.82;68.75;99475.65;1734009;82;20153;-80
2021/10/22 08:26:32;;;;;;;;;;;;;;;8.85;68.80;99485.86;1691496;82;22243;-83
2021/10/22 08:28:59;;;;;;;;;;;;;;;9.07;68.63;99478.33;1731868;82;20126;-83
2021/10/22 08:31:28;;;;;;;;;;;;;;;9.19;68.00;99481.48;1733470;82;20182;-79
2021/10/22 08:33:55;;;;;;;;;;;;;;;9.16;67.80;99498.42;1731671;82;20201;-79
2021/10/22 08:36:21;;;;;;;;;;;;;;;9.21;67.12;99494.80;1730755;81;20194;-80
2021/10/22 08:38:46;;;;;;;;;;;;;;;9.05;67.19;99505.33;1733550;81;21184;-80
2021/10/22 08:41:15;;;;;;;;;;;;;;;9.18;66.90;99496.44;1735105;80;20205;-79
2021/10/22 08:43:41;;;;;;;;;;;;;;;9.18;66.86;99508.29;1732299;82;20248;-79
2021/10/22 08:46:12;;;;;;;;;;;;;;;9.07;66.62;99530.50;1731679;82;20239;-82
2021/10/22 08:48:40;;;;;;;;;;;;;;;9.09;66.15;99527.70;1734830;81;20554;-81
2021/10/22 08:51:09;;;;;;;;;;;;;;;9.05;66.29;99512.72;1734663;81;21169;-81
2021/10/22 08:53:40;;;;;;;;;;;;;;;9.15;66.57;99500.24;1731727;82;20639;-81
2021/10/22 08:56:07;;;;;;;;;;;;;;;9.21;66.92;99500.06;1732789;82;20161;-81
2021/10/22 08:58:40;;;;;;;;;;;;;;;9.27;66.70;99506.00;1730325;82;20150;-79
2021/10/22 09:01:06;;;;;;;;;;;;;;;9.27;66.48;99502.55;1728549;81;20520;-79
2021/10/22 09:03:42;;;;;;;;;;;;;;;9.34;65.85;99507.00;1731998;82;21166;-79
2021/10/22 09:06:09;;;;;;;;;;;;;;;9.52;65.80;99506.85;1704179;82;20488;-80
2021/10/22 09:08:37;;;;;;;;;;;;;;;9.54;65.64;99504.05;1732980;80;20129;-81
2021/10/22 09:11:04;;;;;;;;;;;;;;;9.55;65.58;99510.95;1731630;82;20209;-80
2021/10/22 09:13:37;;;;;;;;;;;;;;;9.61;64.91;99534.02;1735290;81;20193;-82
2021/10/22 09:16:20;;;;;;;;;;;;;;;9.61;65.22;99527.42;1732688;82;21366;-81
2021/10/22 09:18:46;;;;;;;;;;;;;;;9.75;64.30;99516.70;1734330;81;20482;-83
2021/10/22 09:21:13;;;;;;;;;;;;;;;9.83;64.11;99508.77;1716234;82;20174;-84
2021/10/22 09:23:42;;;;;;;;;;;;;;;9.77;62.81;99508.63;1715742;82;20180;-82
2021/10/22 09:26:27;;;;;;;;;;;;;;;9.88;62.92;99508.27;1731866;81;20215;-83
2021/10/22 09:28:49;;;;;;;;;;;;;;;9.90;63.40;99506.31;1727959;81;20148;-82
2021/10/22 09:31:20;;;;;;;;;;;;;;;9.96;63.26;99503.00;1727152;82;20186;-84
2021/10/22 09:33:53;;;;;;;;;;;;;;;9.99;62.81;99493.91;1731490;81;20206;-80
2021/10/22 09:36:38;;;;;;;;;;;;;;;9.81;62.00;99500.72;1727729;81;20166;-81
2021/10/22 09:39:13;;;;;;;;;;;;;;;9.93;62.46;99505.98;1728514;82;20203;-79
2021/10/22 09:41:41;;;;;;;;;;;;;;;9.91;61.65;99502.66;1735618;82;20172;-78
2021/10/22 09:44:29;;;;;;;;;;;;;;;9.83;62.00;99510.59;1737518;82;20198;-82
2021/10/22 09:47:08;;;;;;;;;;;;;;;9.91;61.76;99536.14;1732972;81;20135;-80
2021/10/22 09:49:48;;;;;;;;;;;;;;;9.93;61.55;99516.53;1734432;81;20189;-78
2021/10/22 09:52:27;;;;;;;;;;;;;;;10.00;60.96;99506.93;1731756;82;20180;-80
2021/10/22 09:55:15;;;;;;;;;;;;;;;9.98;61.02;99537.94;1729675;82;21125;-81
2021/10/22 09:57:43;;;;;;;;;;;;;;;9.96;60.92;99499.52;1729835;82;20166;-81
2021/10/22 10:00:12;;;;;;;;;;;;;;;9.88;60.32;99500.36;1730679;81;20517;-80
2021/10/22 10:02:40;;;;;;;;;;;;;;;9.82;60.55;99508.94;1737073;81;20369;-81
2021/10/22 10:05:08;;;;;;;;;;;;;;;9.82;60.27;99504.52;1682984;82;20161;-82
2021/10/22 10:07:39;;;;;;;;;;;;;;;9.97;60.31;99507.27;1715741;82;20702;-81
2021/10/22 10:10:09;;;;;;;;;;;;;;;9.99;60.11;99501.35;1709908;82;40369;-82
2021/10/22 10:12:37;;;;;;;;;;;;;;;10.09;60.01;99499.02;1733670;82;20126;-80
2021/10/22 10:15:09;;;;;;;;;;;;;;;10.22;60.19;99495.34;1728452;81;20383;-81
2021/10/22 10:17:36;;;;;;;;;;;;;;;10.30;60.15;99495.80;1732249;82;20138;-81
2021/10/22 10:20:06;;;;;;;;;;;;;;;10.19;60.07;99498.31;1726596;82;21148;-79
2021/10/22 10:22:33;;;;;;;;;;;;;;;10.35;60.18;99496.98;1737344;81;20156;-83
2021/10/22 10:25:01;;;;;;;;;;;;;;;10.22;60.03;99507.21;1724003;80;20244;-80
2021/10/22 10:27:28;;;;;;;;;;;;;;;10.17;60.75;99488.44;1707279;82;20168;-80
2021/10/22 10:30:00;;;;;;;;;;;;;;;10.20;60.44;99499.97;1734514;82;20174;-81
2021/10/22 10:32:28;;;;;;;;;;;;;;;10.19;60.19;99471.92;1734389;82;21181;-81
2021/10/22 10:35:01;;;;;;;;;;;;;;;10.47;60.11;99464.92;1713533;82;20195;-79
2021/10/22 10:37:40;;;;;;;;;;;;;;;10.55;59.69;99483.35;1738091;81;20162;-77
2021/10/22 10:40:15;;;;;;;;;;;;;;;10.53;59.86;99486.67;1737404;81;20227;-80
2021/10/22 10:42:51;;;;;;;;;;;;;;;10.56;59.36;99476.58;1733163;81;20178;-80
2021/10/22 10:45:27;;;;;;;;;;;;;;;10.70;59.27;99465.78;1736218;82;20095;-79
2021/10/22 10:47:59;;;;;;;;;;;;;;;10.59;58.83;99479.38;1732779;82;20165;-80
2021/10/22 10:50:27;;;;;;;;;;;;;;;10.57;59.03;99485.34;1733805;81;20171;-79
2021/10/22 10:52:58;;;;;;;;;;;;;;;10.70;59.31;99471.06;1734131;81;20122;-80
2021/10/22 10:55:30;;;;;;;;;;;;;;;10.77;59.16;99458.82;1733671;81;20175;-81
2021/10/22 10:58:11;;;;;;;;;;;;;;;10.71;59.50;99463.48;1730209;82;21127;-80
2021/10/22 11:00:47;;;;;;;;;;;;;;;10.84;59.68;99442.27;1734514;82;20118;-80
2021/10/22 11:03:20;;;;;;;;;;;;;;;10.85;59.20;99468.52;1728694;82;20170;-82
2021/10/22 11:05:53;;;;;;;;;;;;;;;10.90;59.03;99444.22;1729698;81;20235;-84
2021/10/22 11:08:34;;;;;;;;;;;;;;;10.75;59.54;99466.10;1729204;82;20118;-80
2021/10/22 11:11:44;;;;;;;;;;;;;;;10.74;59.89;99456.52;1732493;82;21056;-81
2021/10/22 11:14:02;;;;;;;;;;;;;;;10.84;59.24;99456.29;1728377;82;20110;-82
2021/10/22 11:16:38;;;;;;;;;;;;;;;10.68;59.45;99482.30;1732955;82;20161;-82
2021/10/22 11:19:14;;;;;;;;;;;;;;;10.82;59.39;99468.05;1733308;81;20146;-80
2021/10/22 11:21:45;;;;;;;;;;;;;;;10.81;59.34;99459.28;1734929;82;20472;-79
2021/10/22 11:24:24;;;;;;;;;;;;;;;10.91;58.72;99459.08;1749327;81;21988;-81
2021/10/22 11:27:11;;;;;;;;;;;;;;;10.89;58.58;99450.48;1746473;81;20125;-80
2021/10/22 11:29:48;;;;;;;;;;;;;;;10.92;58.64;99466.83;1745345;80;20210;-83
2021/10/22 11:32:19;;;;;;;;;;;;;;;10.87;58.06;99447.20;1745002;81;20230;-82
2021/10/22 11:34:48;;;;;;;;;;;;;;;10.88;58.26;99478.73;1747244;81;20163;-81
2021/10/22 11:37:16;;;;;;;;;;;;;;;10.94;58.14;99456.89;1720625;81;20651;-81
2021/10/22 11:39:50;;;;;;;;;;;;;;;10.83;57.80;99457.31;1743286;80;20166;-81
2021/10/22 11:42:18;;;;;;;;;;;;;;;10.75;58.21;99442.34;1748397;81;20177;-81
2021/10/22 11:44:50;;;;;;;;;;;;;;;10.77;58.23;99440.33;1742096;81;20193;-81
2021/10/22 11:47:21;;;;;;;;;;;;;;;10.79;57.93;99440.16;1743799;81;20174;-79
2021/10/22 11:49:48;;;;;;;;;;;;;;;10.74;58.31;99438.04;1746153;81;20614;-81
2021/10/22 11:52:16;;;;;;;;;;;;;;;10.76;58.71;99453.71;1742842;81;20218;-82
2021/10/22 11:54:49;;;;;;;;;;;;;;;10.84;57.84;99436.99;1714450;82;20179;-80
2021/10/22 11:57:22;;;;;;;;;;;;;;;10.90;57.34;99437.61;1744775;82;20154;-82
2021/10/22 11:59:53;;;;;;;;;;;;;;;10.85;57.37;99442.61;1742474;82;20588;-81
2021/10/22 12:02:26;;;;;;;;;;;;;;;10.73;57.04;99449.59;1741622;82;21108;-84
2021/10/22 12:04:58;;;;;;;;;;;;;;;10.76;56.98;99432.08;1745444;82;20142;-82
2021/10/22 12:07:28;;;;;;;;;;;;;;;10.81;56.95;99458.47;1744700;81;20129;-85
2021/10/22 12:09:56;;;;;;;;;;;;;;;10.82;56.98;99429.24;1745483;81;20205;-84
2021/10/22 12:12:22;;;;;;;;;;;;;;;10.87;57.02;99424.75;1745555;81;21031;-82
2021/10/22 12:14:49;;;;;;;;;;;;;;;10.77;57.38;99435.56;1745882;82;21157;-82
2021/10/22 12:17:19;;;;;;;;;;;;;;;10.69;56.82;99437.75;1745771;81;20183;-83
2021/10/22 12:19:46;;;;;;;;;;;;;;;10.63;56.95;99456.93;1748355;81;20145;-82
2021/10/22 12:22:14;;;;;;;;;;;;;;;10.62;57.09;99435.98;1744236;81;20161;-82
2021/10/22 12:24:44;;;;;;;;;;;;;;;10.68;57.03;99446.66;1746612;81;20198;-83
2021/10/22 12:27:11;;;;;;;;;;;;;;;10.69;57.17;99443.03;1746253;81;21165;-82
2021/10/22 12:29:50;;;;;;;;;;;;;;;10.60;56.88;99443.56;1742505;81;20537;-83
2021/10/22 12:32:35;;;;;;;;;;;;;;;10.62;57.02;99438.11;1740584;81;20136;-83
2021/10/22 12:35:03;;;;;;;;;;;;;;;10.53;56.29;99437.83;1742586;81;20206;-80
2021/10/22 12:37:41;;;;;;;;;;;;;;;10.49;55.81;99428.63;1742952;81;20225;-81
2021/10/22 12:40:35;;;;;;;;;;;;;;;10.45;56.24;99440.52;1740130;81;21295;-80
2021/10/22 12:43:14;;;;;;;;;;;;;;;10.49;56.54;99427.31;1740206;81;20900;-80
2021/10/22 12:45:41;;;;;;;;;;;;;;;10.45;56.59;99440.52;1735489;81;20235;-80
2021/10/22 12:48:08;;;;;;;;;;;;;;;10.51;56.60;99428.77;1736419;81;20243;-81
2021/10/22 12:50:35;;;;;;;;;;;;;;;10.40;56.67;99452.41;1737801;81;20189;-80
2021/10/22 12:53:02;;;;;;;;;;;;;;;10.35;56.93;99434.96;1742251;81;21179;-79
2021/10/22 12:55:31;;;;;;;;;;;;;;;10.45;56.68;99428.64;1736394;81;20186;-80
2021/10/22 12:58:19;;;;;;;;;;;;;;;10.51;57.00;99416.08;1714002;81;20191;-81
2021/10/22 13:00:49;;;;;;;;;;;;;;;10.47;56.98;99422.69;1705689;81;20253;-80
2021/10/22 13:03:17;;;;;;;;;;;;;;;10.36;57.12;99444.53;1720568;80;20194;-78
2021/10/22 13:05:43;;;;;;;;;;;;;;;10.38;57.09;99433.30;1738041;81;21072;-79
2021/10/22 13:11:06;;;;;;;;;;;;;;;10.46;57.62;99417.11;1734502;81;20174;-79